createdAt,value
2019-03-01T00:02:19.061Z,24.03
2019-03-01T00:05:24.003Z,24.57
2019-03-01T00:08:04.595Z,21.77
2019-03-01T00:10:26.818Z,22.27
2019-03-01T00:13:09.316Z,19.37
2019-03-01T00:15:37.448Z,21.90
2019-03-01T00:18:15.322Z,18.23
2019-03-01T00:20:48.191Z,20.40
2019-03-01T00:23:31.747Z,22.90
2019-03-01T00:26:06.967Z,21.77
2019-03-01T00:28:41.454Z,22.80
2019-03-01T00:31:22.454Z,20.83
2019-03-01T00:34:18.386Z,17.80
2019-03-01T00:36:55.133Z,20.37
2019-03-01T00:39:23.062Z,28.00
2019-03-01T00:42:02.853Z,17.63
2019-03-01T00:44:42.438Z,22.10
2019-03-01T00:46:48.431Z,25.37
2019-03-01T00:49:40.275Z,20.43
2019-03-01T00:51:42.860Z,24.27
2019-03-01T00:57:29.891Z,21.57
2019-03-01T00:59:57.971Z,20.63
2019-03-01T01:02:02.723Z,21.07
2019-03-01T01:04:07.517Z,27.93
2019-03-01T01:06:12.286Z,18.87
2019-03-01T01:08:17.072Z,34.30
2019-03-01T01:10:22.464Z,26.77
2019-03-01T01:12:27.226Z,27.67
2019-03-01T01:14:32.341Z,27.90
2019-03-01T01:16:37.104Z,24.27
2019-03-01T01:18:41.848Z,25.77
2019-03-01T01:20:46.632Z,30.90
2019-03-01T01:22:51.321Z,21.23
2019-03-01T01:24:56.075Z,33.00
2019-03-01T01:27:00.872Z,23.03
2019-03-01T01:29:06.250Z,24.93
2019-03-01T01:31:11.046Z,21.60
2019-03-01T01:33:16.114Z,24.30
2019-03-01T01:35:21.177Z,31.47
2019-03-01T01:37:26.064Z,24.80
2019-03-01T01:39:30.795Z,25.00
2019-03-01T01:41:36.083Z,21.70
2019-03-01T01:43:40.882Z,26.07
2019-03-01T01:45:45.615Z,23.10
2019-03-01T01:47:50.388Z,30.17
2019-03-01T01:49:55.331Z,23.47
2019-03-01T01:52:00.452Z,22.17
2019-03-01T01:54:05.745Z,23.33
2019-03-01T01:56:10.960Z,22.43
2019-03-01T01:58:16.310Z,23.97
2019-03-01T02:00:21.063Z,30.20
2019-03-01T02:02:25.875Z,34.70
2019-03-01T02:04:31.367Z,26.73
2019-03-01T02:06:36.112Z,16.50
2019-03-01T02:08:41.544Z,19.43
2019-03-01T02:10:46.233Z,20.43
2019-03-01T02:12:51.045Z,22.33
2019-03-01T02:14:55.898Z,19.77
2019-03-01T02:17:00.579Z,18.47
2019-03-01T02:19:05.498Z,20.43
2019-03-01T02:21:10.446Z,22.00
2019-03-01T02:23:15.157Z,27.27
2019-03-01T02:25:19.897Z,19.83
2019-03-01T02:27:29.429Z,21.80
2019-03-01T02:29:34.198Z,18.87
2019-03-01T02:31:40.814Z,20.30
2019-03-01T02:33:49.039Z,14.80
2019-03-01T02:35:54.033Z,17.83
2019-03-01T02:37:58.792Z,14.73
2019-03-01T02:40:04.216Z,19.97
2019-03-01T02:42:09.412Z,14.47
2019-03-01T02:44:14.261Z,18.20
2019-03-01T02:46:19.053Z,16.40
2019-03-01T02:48:23.800Z,19.07
2019-03-01T02:50:28.558Z,14.57
2019-03-01T02:52:33.539Z,19.90
2019-03-01T02:54:38.541Z,15.63
2019-03-01T02:56:43.316Z,12.50
2019-03-01T02:58:48.086Z,14.70
2019-03-01T03:00:52.859Z,18.27
2019-03-01T03:02:58.068Z,15.00
2019-03-01T03:05:03.518Z,14.60
2019-03-01T03:07:19.023Z,14.87
2019-03-01T03:09:24.263Z,15.27
2019-03-01T03:11:29.126Z,13.90
2019-03-01T03:13:34.226Z,16.80
2019-03-01T03:15:44.598Z,19.00
2019-03-01T03:17:49.267Z,14.10
2019-03-01T03:19:54.050Z,14.80
2019-03-01T03:21:58.991Z,17.43
2019-03-01T03:24:03.733Z,12.73
2019-03-01T03:26:08.539Z,13.77
2019-03-01T03:28:13.254Z,18.90
2019-03-01T03:30:18.308Z,18.07
2019-03-01T03:32:23.240Z,16.00
2019-03-01T03:34:28.417Z,18.10
2019-03-01T03:36:33.522Z,16.77
2019-03-01T03:38:38.301Z,19.57
2019-03-01T03:40:43.155Z,17.53
2019-03-01T03:42:47.979Z,26.40
2019-03-01T03:44:52.826Z,14.77
2019-03-01T03:46:57.934Z,21.00
2019-03-01T03:49:02.713Z,17.37
2019-03-01T03:51:08.755Z,19.93
2019-03-01T03:53:13.648Z,25.43
2019-03-01T03:55:19.356Z,22.00
2019-03-01T03:57:24.060Z,23.07
2019-03-01T03:59:28.867Z,25.80
2019-03-01T04:01:34.607Z,24.10
2019-03-01T04:03:39.529Z,25.57
2019-03-01T04:05:44.609Z,29.07
2019-03-01T04:07:49.570Z,35.33
2019-03-01T04:09:54.379Z,27.70
2019-03-01T04:12:00.323Z,29.77
2019-03-01T04:14:05.166Z,30.97
2019-03-01T04:16:10.113Z,25.53
2019-03-01T04:18:15.245Z,27.07
2019-03-01T04:20:20.146Z,28.27
2019-03-01T04:22:24.882Z,26.83
2019-03-01T04:24:29.676Z,22.70
2019-03-01T04:26:34.926Z,28.43
2019-03-01T04:28:39.694Z,32.63
2019-03-01T04:30:44.551Z,26.60
2019-03-01T04:32:49.822Z,33.23
2019-03-01T04:34:54.551Z,27.30
2019-03-01T04:37:00.080Z,29.67
2019-03-01T04:39:06.365Z,31.30
2019-03-01T04:41:11.494Z,31.43
2019-03-01T04:43:16.247Z,33.00
2019-03-01T04:45:21.343Z,34.00
2019-03-01T04:47:26.430Z,31.57
2019-03-01T04:49:31.165Z,32.10
2019-03-01T04:51:40.133Z,33.33
2019-03-01T04:53:43.074Z,37.03
2019-03-01T04:55:47.874Z,27.93
2019-03-01T04:57:52.635Z,32.60
2019-03-01T04:59:57.487Z,35.60
2019-03-01T05:02:02.644Z,35.40
2019-03-01T05:04:07.461Z,38.80
2019-03-01T05:06:12.732Z,37.20
2019-03-01T05:08:18.180Z,40.93
2019-03-01T05:10:23.256Z,42.87
2019-03-01T05:12:28.081Z,53.53
2019-03-01T05:14:32.810Z,45.70
2019-03-01T05:16:37.987Z,53.43
2019-03-01T05:18:42.874Z,58.60
2019-03-01T05:20:47.899Z,71.53
2019-03-01T05:22:53.163Z,68.30
2019-03-01T05:24:58.060Z,74.10
2019-03-01T05:27:02.940Z,79.83
2019-03-01T05:29:07.740Z,104.67
2019-03-01T05:31:12.625Z,127.07
2019-03-01T05:33:17.407Z,135.83
2019-03-01T05:35:22.218Z,127.83
2019-03-01T05:37:26.968Z,143.40
2019-03-01T05:39:31.770Z,148.50
2019-03-01T05:41:37.602Z,139.77
2019-03-01T05:43:43.501Z,154.67
2019-03-01T05:45:48.357Z,150.87
2019-03-01T05:47:54.513Z,144.97
2019-03-01T05:49:59.272Z,153.33
2019-03-01T05:52:04.765Z,143.63
2019-03-01T05:54:10.919Z,154.10
2019-03-01T05:56:17.691Z,144.50
2019-03-01T05:58:30.540Z,152.03
2019-03-01T06:00:35.949Z,159.43
2019-03-01T06:03:10.823Z,150.47
2019-03-01T06:05:25.850Z,148.57
2019-03-01T06:08:12.082Z,165.60
2019-03-01T06:10:34.155Z,185.00
2019-03-01T07:28:20.759Z,212.80
2019-03-01T07:40:26.368Z,205.20
2019-03-01T07:43:29.013Z,187.03
2019-03-01T10:45:56.889Z,144.13
2019-03-01T10:49:16.593Z,146.80
2019-03-01T10:52:45.511Z,129.43
2019-03-01T10:59:00.838Z,146.70
2019-03-01T11:01:32.288Z,139.00
2019-03-01T11:04:10.545Z,145.57
2019-03-01T11:10:29.897Z,136.73
2019-03-01T11:17:31.126Z,120.00
2019-03-01T13:52:56.216Z,27.43
2019-03-01T13:55:01.315Z,26.50
2019-03-01T13:57:08.298Z,23.50
2019-03-01T13:59:12.530Z,28.30
2019-03-01T14:01:17.527Z,25.07
2019-03-01T14:03:24.273Z,37.90
2019-03-01T14:05:28.855Z,18.63
2019-03-01T14:07:33.754Z,26.77
2019-03-01T14:21:55.234Z,32.93
2019-03-01T14:24:11.619Z,24.43
2019-03-01T14:26:18.503Z,26.67
2019-03-01T14:46:52.948Z,29.80
2019-03-01T14:48:58.367Z,36.13
2019-03-01T14:51:03.091Z,25.30
2019-03-01T14:53:08.139Z,36.20
2019-03-01T15:01:36.162Z,31.80
2019-03-01T15:07:24.163Z,25.10
2019-03-01T15:09:29.298Z,28.10
2019-03-01T15:11:33.982Z,24.10
2019-03-01T15:13:38.909Z,20.30
2019-03-01T15:15:43.726Z,37.40
2019-03-01T15:17:48.451Z,39.37
2019-03-01T15:19:53.380Z,24.60
2019-03-01T15:21:58.036Z,25.20
2019-03-01T15:24:03.113Z,26.77
2019-03-01T15:26:08.372Z,22.53
2019-03-01T15:28:13.298Z,25.67
2019-03-01T15:30:18.650Z,26.33
2019-03-01T15:32:36.188Z,28.00
2019-03-01T15:34:41.102Z,26.80
2019-03-01T15:36:46.444Z,28.33
2019-03-01T15:38:51.153Z,22.83
2019-03-01T15:40:56.194Z,21.63
2019-03-01T15:43:01.251Z,22.00
2019-03-01T15:45:06.775Z,25.00
2019-03-01T15:47:11.868Z,27.40
2019-03-01T15:49:16.917Z,16.37
2019-03-01T15:51:21.981Z,20.80
2019-03-01T15:53:26.704Z,24.73
2019-03-01T15:55:31.719Z,21.87
2019-03-01T15:57:36.918Z,28.73
2019-03-01T15:59:44.368Z,16.87
2019-03-01T16:01:48.342Z,18.77
2019-03-01T16:03:54.100Z,26.17
2019-03-01T16:05:59.856Z,33.73
2019-03-01T16:08:05.447Z,34.03
2019-03-01T16:10:11.780Z,19.33
2019-03-01T16:12:16.523Z,53.03
2019-03-01T16:14:24.124Z,23.27
2019-03-01T16:16:27.696Z,19.00
2019-03-01T16:18:35.381Z,20.43
2019-03-01T16:20:38.958Z,18.73
2019-03-01T16:22:43.674Z,23.17
2019-03-01T16:24:48.367Z,19.73
2019-03-01T16:26:53.158Z,21.40
2019-03-01T16:28:58.153Z,18.13
2019-03-01T16:31:02.962Z,16.90
2019-03-01T16:33:07.828Z,17.87
2019-03-01T16:35:16.251Z,15.83
2019-03-01T16:37:22.672Z,12.10
2019-03-01T16:39:26.631Z,18.67
2019-03-01T16:41:31.478Z,12.47
2019-03-01T16:43:37.075Z,19.73
2019-03-01T16:45:42.184Z,10.47
2019-03-01T16:47:49.713Z,16.50
2019-03-01T16:49:54.495Z,12.77
2019-03-01T16:51:59.469Z,10.00
2019-03-01T16:54:04.603Z,13.50
2019-03-01T16:56:11.842Z,8.00
2019-03-01T16:58:16.513Z,14.83
2019-03-01T17:00:21.317Z,17.20
2019-03-01T17:02:26.350Z,12.23
2019-03-01T17:04:31.570Z,10.60
2019-03-01T17:06:36.392Z,11.90
2019-03-01T17:08:41.111Z,18.93
2019-03-01T17:10:46.303Z,12.20
2019-03-01T17:12:52.016Z,10.87
2019-03-01T17:14:57.638Z,11.87
2019-03-01T17:17:02.519Z,17.60
2019-03-01T17:19:07.223Z,26.03
2019-03-01T17:21:12.506Z,18.67
2019-03-01T17:23:18.448Z,15.00
2019-03-01T17:25:26.546Z,12.93
2019-03-01T17:27:29.698Z,15.03
2019-03-01T17:29:35.690Z,14.00
2019-03-01T17:31:41.445Z,20.40
2019-03-01T17:33:48.856Z,26.23
2019-03-01T17:35:53.267Z,26.63
2019-03-01T17:37:58.147Z,38.63
2019-03-01T17:40:02.975Z,25.07
2019-03-01T17:42:07.971Z,30.00
2019-03-01T17:44:12.838Z,14.00
2019-03-01T17:46:17.741Z,16.23
2019-03-01T17:48:42.157Z,33.33
2019-03-01T17:50:47.379Z,35.30
2019-03-01T17:52:52.123Z,21.53
2019-03-01T17:54:57.582Z,22.57
2019-03-01T17:57:03.413Z,23.07
2019-03-01T17:59:11.617Z,26.13
2019-03-01T18:01:14.673Z,15.43
2019-03-01T18:03:19.520Z,20.67
2019-03-01T18:05:25.826Z,13.63
2019-03-01T18:07:32.444Z,10.30
2019-03-01T18:09:37.478Z,14.07
2019-03-01T18:11:44.550Z,17.03
2019-03-01T18:13:48.724Z,15.40
2019-03-01T18:15:53.596Z,16.90
2019-03-01T18:18:04.295Z,17.00
2019-03-01T18:20:09.625Z,16.60
2019-03-01T18:22:14.823Z,12.43
2019-03-01T18:24:20.037Z,12.23
2019-03-01T18:26:24.927Z,14.63
2019-03-01T18:28:29.695Z,10.63
2019-03-01T18:30:35.562Z,6.83
2019-03-01T18:32:41.793Z,10.07
2019-03-01T18:34:47.260Z,11.40
2019-03-01T18:36:52.140Z,17.50
2019-03-01T18:38:56.956Z,17.23
2019-03-01T18:41:02.143Z,12.73
2019-03-01T18:43:09.757Z,8.33
2019-03-01T18:45:15.261Z,8.70
2019-03-01T18:47:20.188Z,8.60
2019-03-01T18:49:25.113Z,8.40
2019-03-01T18:51:30.137Z,5.63
2019-03-01T18:53:35.279Z,9.47
2019-03-01T18:55:54.679Z,10.40
2019-03-01T18:57:59.430Z,7.77
2019-03-01T19:00:05.909Z,7.57
2019-03-01T19:02:43.620Z,11.20
2019-03-01T19:04:48.658Z,12.77
2019-03-01T19:06:53.665Z,10.03
2019-03-01T20:54:34.708Z,4.10
2019-03-01T20:56:40.038Z,7.40
2019-03-01T20:58:45.275Z,9.40
2019-03-01T21:00:50.722Z,9.60
2019-03-01T21:02:55.532Z,7.17
2019-03-01T21:05:00.706Z,6.00
2019-03-01T21:07:06.112Z,5.40
2019-03-01T21:09:10.876Z,6.80
2019-03-01T21:11:18.381Z,6.83
2019-03-01T21:13:25.610Z,9.07
2019-03-01T21:15:37.639Z,7.80
2019-03-01T21:17:41.801Z,6.93
2019-03-01T21:22:59.556Z,6.77
2019-03-01T21:28:14.252Z,10.13
2019-03-01T21:45:29.456Z,16.03
2019-03-01T22:24:16.863Z,14.00
2019-03-01T22:26:21.721Z,15.03
2019-03-01T22:28:26.529Z,13.00
2019-03-01T22:30:31.589Z,18.03
2019-03-01T22:32:36.467Z,12.43
2019-03-01T22:34:41.915Z,12.77
2019-03-01T22:36:49.524Z,17.43
2019-03-01T22:38:53.918Z,13.70
2019-03-01T22:41:00.581Z,11.30
2019-03-01T22:43:05.557Z,13.63
2019-03-01T22:45:13.629Z,12.13
2019-03-01T22:47:18.641Z,10.33
2019-03-01T22:49:24.122Z,14.03
2019-03-01T22:51:29.394Z,16.00
2019-03-01T22:53:34.235Z,10.00
2019-03-01T22:55:38.977Z,14.70
2019-03-01T22:57:44.895Z,11.00
2019-03-01T22:59:50.369Z,14.47
2019-03-01T23:01:59.036Z,16.13
2019-03-01T23:04:05.639Z,12.70
2019-03-01T23:06:11.702Z,12.03
2019-03-01T23:08:17.079Z,10.37
2019-03-01T23:10:22.399Z,22.80
2019-03-01T23:12:27.261Z,12.83
2019-03-01T23:14:32.027Z,13.43
2019-03-01T23:16:36.822Z,9.30
2019-03-01T23:18:41.542Z,10.20
2019-03-01T23:20:46.677Z,12.00
2019-03-01T23:22:51.646Z,12.30
2019-03-01T23:24:56.855Z,9.63
2019-03-01T23:27:01.917Z,17.70
2019-03-01T23:29:06.785Z,13.63
2019-03-01T23:31:11.902Z,12.77
2019-03-01T23:33:17.092Z,14.60
2019-03-01T23:35:21.907Z,16.60
2019-03-01T23:37:27.045Z,12.20
2019-03-01T23:39:31.912Z,10.97
2019-03-01T23:41:36.757Z,15.23
2019-03-01T23:43:41.534Z,14.33
2019-03-01T23:45:49.789Z,17.90
2019-03-01T23:47:52.778Z,16.30
2019-03-01T23:49:59.351Z,16.20
2019-03-01T23:52:04.088Z,15.60
2019-03-01T23:54:09.887Z,21.10
2019-03-01T23:56:15.105Z,21.83
2019-03-01T23:58:19.878Z,20.60
